Time;durP1;ratioP1;P1;durP2;ratioP2;P2;SDS_P1;SDS_P2;PMS_P1;PMS_P2;Temp;Humidity;BMP_temperature;BMP_pressure;BME280_temperature;BME280_humidity;BME280_pressure;Samples;Min_cycle;Max_cycle;Signal;HPM_P1;HPM_P2
2023/10/17 00:02:12;;;;;;;25.00;15.50;;;;;;;;;;5070426;28;20044;-60
2023/10/17 00:04:41;;;;;;;24.47;14.87;;;;;;;;;;5070234;28;20045;-60
2023/10/17 00:07:08;;;;;;;27.77;15.57;;;;;;;;;;5070528;28;20052;-61
2023/10/17 00:09:37;;;;;;;22.17;14.53;;;;;;;;;;5070571;28;20131;-61
2023/10/17 00:12:25;;;;;;;25.03;16.17;;;;;;;;;;5067007;28;20040;-63
2023/10/17 00:17:17;;;;;;;26.63;16.20;;;;;;;;;;5049965;28;20057;-60
2023/10/17 00:19:45;;;;;;;38.07;15.57;;;;;;;;;;5050424;28;20036;-60
2023/10/17 00:22:16;;;;;;;28.20;16.30;;;;;;;;;;5050349;28;20084;-60
2023/10/17 00:24:46;;;;;;;28.20;16.33;;;;;;;;;;5050144;28;20044;-60
2023/10/17 00:27:12;;;;;;;37.13;15.27;;;;;;;;;;5050348;28;20075;-60
2023/10/17 00:29:38;;;;;;;31.20;12.97;;;;;;;;;;5049861;28;20044;-60
2023/10/17 00:32:08;;;;;;;15.43;11.60;;;;;;;;;;5049549;28;20064;-60
2023/10/17 00:34:34;;;;;;;25.23;15.07;;;;;;;;;;5050170;28;20053;-60
2023/10/17 00:37:23;;;;;;;30.60;17.13;;;;;;;;;;5049407;28;20138;-60
2023/10/17 00:39:47;;;;;;;25.77;15.27;;;;;;;;;;5049586;28;20056;-60
2023/10/17 00:42:27;;;;;;;22.23;14.37;;;;;;;;;;5049356;28;20503;-60
2023/10/17 00:44:53;;;;;;;31.87;18.33;;;;;;;;;;5049950;28;20419;-60
2023/10/17 00:47:19;;;;;;;29.87;15.97;;;;;;;;;;5049363;28;20111;-61
2023/10/17 00:49:45;;;;;;;72.30;14.87;;;;;;;;;;5049722;28;20041;-60
2023/10/17 00:52:18;;;;;;;40.70;16.90;;;;;;;;;;5049182;28;20136;-60
2023/10/17 00:54:45;;;;;;;19.35;11.38;;;;;;;;;;5049569;28;20098;-60
2023/10/17 00:57:14;;;;;;;21.97;12.40;;;;;;;;;;5049514;28;20487;-60
2023/10/17 00:59:44;;;;;;;23.50;14.90;;;;;;;;;;5049655;28;20080;-60
2023/10/17 01:02:10;;;;;;;23.20;14.80;;;;;;;;;;5049116;28;20131;-60
2023/10/17 01:04:40;;;;;;;22.60;14.27;;;;;;;;;;5049439;28;20511;-60
2023/10/17 01:07:07;;;;;;;30.50;13.80;;;;;;;;;;5049073;28;20057;-60
2023/10/17 01:09:36;;;;;;;20.30;13.57;;;;;;;;;;5049340;28;20525;-60
2023/10/17 01:12:08;;;;;;;19.03;13.40;;;;;;;;;;5053586;28;20037;-60
2023/10/17 01:14:35;;;;;;;17.67;12.20;;;;;;;;;;5069380;28;20525;-60
2023/10/17 01:17:05;;;;;;;22.33;15.13;;;;;;;;;;5067491;28;20115;-60
2023/10/17 01:19:33;;;;;;;31.47;16.90;;;;;;;;;;5069047;28;20457;-59
2023/10/17 01:21:59;;;;;;;23.93;15.33;;;;;;;;;;5068947;28;20099;-60
2023/10/17 01:24:26;;;;;;;19.83;13.17;;;;;;;;;;5068631;28;20044;-59
2023/10/17 01:26:52;;;;;;;22.03;13.63;;;;;;;;;;5060537;28;20619;-59
2023/10/17 01:29:18;;;;;;;37.20;19.53;;;;;;;;;;5060180;28;20041;-60
2023/10/17 01:31:44;;;;;;;70.80;16.97;;;;;;;;;;5068921;28;20119;-59
2023/10/17 01:34:11;;;;;;;25.57;16.07;;;;;;;;;;5067906;28;20045;-60
2023/10/17 01:36:38;;;;;;;33.80;19.43;;;;;;;;;;5047397;28;20064;-60
2023/10/17 01:39:11;;;;;;;30.30;16.70;;;;;;;;;;5048446;28;20072;-59
2023/10/17 01:41:48;;;;;;;33.75;19.08;;;;;;;;;;5048505;28;20404;-59
2023/10/17 01:44:15;;;;;;;20.90;14.10;;;;;;;;;;5048922;28;20406;-59
2023/10/17 01:46:43;;;;;;;27.43;14.73;;;;;;;;;;5048860;28;20057;-60
2023/10/17 01:49:13;;;;;;;23.07;12.63;;;;;;;;;;5048597;28;20044;-59
2023/10/17 01:51:44;;;;;;;27.70;15.93;;;;;;;;;;5048545;28;20045;-59
2023/10/17 01:54:15;;;;;;;17.03;11.53;;;;;;;;;;5048325;28;20171;-59
2023/10/17 01:56:47;;;;;;;21.43;13.40;;;;;;;;;;5048783;28;20045;-59
2023/10/17 01:59:13;;;;;;;24.93;15.80;;;;;;;;;;5048063;28;20132;-60
2023/10/17 02:01:42;;;;;;;42.27;21.83;;;;;;;;;;5048887;28;20052;-59
2023/10/17 02:04:16;;;;;;;24.00;13.97;;;;;;;;;;5048487;28;20091;-59
2023/10/17 02:06:42;;;;;;;29.93;18.67;;;;;;;;;;5048240;28;20517;-59
2023/10/17 02:09:25;;;;;;;24.27;14.13;;;;;;;;;;5048236;28;20037;-60
2023/10/17 02:11:54;;;;;;;44.13;21.63;;;;;;;;;;5048248;28;20052;-59
2023/10/17 02:14:20;;;;;;;45.83;22.80;;;;;;;;;;5051750;28;20053;-59
2023/10/17 02:16:46;;;;;;;50.53;23.27;;;;;;;;;;5052629;28;20045;-59
2023/10/17 02:19:12;;;;;;;41.20;20.53;;;;;;;;;;5052362;28;20072;-59
2023/10/17 02:21:39;;;;;;;34.93;20.27;;;;;;;;;;5061163;28;20080;-59
2023/10/17 02:24:07;;;;;;;42.63;20.00;;;;;;;;;;5067101;28;20051;-59
2023/10/17 02:26:43;;;;;;;37.80;20.07;;;;;;;;;;5071937;28;20867;-60
2023/10/17 02:29:14;;;;;;;34.53;18.87;;;;;;;;;;5067709;28;20052;-60
2023/10/17 02:31:41;;;;;;;33.33;18.73;;;;;;;;;;5052438;28;20053;-59
2023/10/17 02:34:10;;;;;;;30.50;17.43;;;;;;;;;;5051960;28;20055;-60
2023/10/17 02:36:36;;;;;;;31.67;17.03;;;;;;;;;;5052288;28;20139;-60
2023/10/17 02:39:06;;;;;;;33.23;19.13;;;;;;;;;;5051867;28;20087;-60
2023/10/17 02:41:32;;;;;;;35.27;19.23;;;;;;;;;;5066576;28;20048;-60
2023/10/17 02:43:58;;;;;;;52.80;22.20;;;;;;;;;;5071612;28;20047;-60
2023/10/17 02:46:28;;;;;;;41.57;20.33;;;;;;;;;;5072459;28;20037;-60
2023/10/17 02:48:54;;;;;;;47.77;20.20;;;;;;;;;;5071724;28;20095;-59
2023/10/17 02:53:47;;;;;;;40.97;20.40;;;;;;;;;;5067309;28;20151;-59
2023/10/17 02:56:19;;;;;;;43.93;20.13;;;;;;;;;;5051804;28;20465;-59
2023/10/17 02:59:04;;;;;;;38.87;20.67;;;;;;;;;;5052111;28;20040;-59
2023/10/17 03:01:40;;;;;;;33.90;18.03;;;;;;;;;;5051532;28;20052;-59
2023/10/17 03:04:10;;;;;;;38.00;19.63;;;;;;;;;;5050857;28;20084;-59
2023/10/17 03:06:40;;;;;;;43.30;19.93;;;;;;;;;;5051733;28;20060;-59
2023/10/17 03:09:31;;;;;;;37.57;19.40;;;;;;;;;;5051609;28;20381;-59
2023/10/17 03:12:07;;;;;;;44.13;19.83;;;;;;;;;;5050188;28;20068;-59
2023/10/17 03:17:11;;;;;;;40.63;18.53;;;;;;;;;;5051260;28;20578;-59
2023/10/17 03:19:38;;;;;;;29.57;16.27;;;;;;;;;;5053553;28;20422;-59
2023/10/17 03:24:51;;;;;;;25.97;12.90;;;;;;;;;;5070176;28;20088;-59
2023/10/17 03:27:27;;;;;;;21.10;12.77;;;;;;;;;;5070745;28;20072;-59
2023/10/17 03:29:53;;;;;;;54.53;14.57;;;;;;;;;;5070752;28;20037;-59
2023/10/17 03:32:22;;;;;;;70.67;15.60;;;;;;;;;;5071410;28;20036;-59
2023/10/17 03:34:56;;;;;;;170.57;19.97;;;;;;;;;;5071140;28;20060;-59
2023/10/17 03:39:52;;;;;;;26.93;14.20;;;;;;;;;;5070539;28;20127;-59
2023/10/17 03:42:41;;;;;;;26.43;14.23;;;;;;;;;;5070592;28;20080;-59
2023/10/17 03:45:24;;;;;;;32.87;14.60;;;;;;;;;;5070815;28;20045;-59
2023/10/17 03:48:04;;;;;;;26.63;14.30;;;;;;;;;;5070613;28;20443;-59
2023/10/17 03:50:43;;;;;;;29.00;15.07;;;;;;;;;;5070810;28;20618;-59
2023/10/17 03:53:24;;;;;;;28.30;14.57;;;;;;;;;;5070652;28;20128;-59
2023/10/17 03:55:50;;;;;;;25.37;13.53;;;;;;;;;;5070312;28;20422;-59
2023/10/17 04:00:50;;;;;;;34.58;14.65;;;;;;;;;;5070594;28;20055;-59
2023/10/17 04:03:21;;;;;;;32.73;15.13;;;;;;;;;;5052392;28;20052;-59
2023/10/17 04:05:51;;;;;;;31.40;14.60;;;;;;;;;;5060170;28;20400;-59
2023/10/17 04:08:31;;;;;;;25.30;12.47;;;;;;;;;;5050411;28;20052;-59
2023/10/17 04:11:17;;;;;;;24.03;14.40;;;;;;;;;;5050144;28;20045;-59
2023/10/17 04:13:43;;;;;;;36.63;17.40;;;;;;;;;;5050257;28;20049;-59
2023/10/17 04:16:10;;;;;;;34.10;17.17;;;;;;;;;;5049952;28;20132;-59
2023/10/17 04:18:39;;;;;;;32.43;15.30;;;;;;;;;;5050342;28;20063;-59
2023/10/17 04:21:28;;;;;;;85.67;16.40;;;;;;;;;;5050019;28;20423;-59
2023/10/17 04:23:59;;;;;;;21.50;12.20;;;;;;;;;;5057253;28;20052;-59
2023/10/17 04:26:29;;;;;;;24.93;13.10;;;;;;;;;;5070348;28;20123;-59
2023/10/17 04:28:56;;;;;;;28.90;13.63;;;;;;;;;;5069891;28;20041;-59
2023/10/17 04:31:25;;;;;;;32.03;16.50;;;;;;;;;;5069875;28;20044;-60
2023/10/17 04:34:06;;;;;;;29.47;15.03;;;;;;;;;;5069938;28;20044;-59
2023/10/17 04:36:38;;;;;;;32.90;16.53;;;;;;;;;;5069504;28;20044;-59
2023/10/17 04:44:36;;;;;;;33.10;16.20;;;;;;;;;;5069036;28;20059;-59
2023/10/17 04:49:30;;;;;;;32.50;15.93;;;;;;;;;;5069922;28;20052;-59
2023/10/17 04:52:06;;;;;;;42.03;17.00;;;;;;;;;;5069339;28;20040;-59
2023/10/17 04:57:04;;;;;;;28.80;15.07;;;;;;;;;;5068999;28;20055;-59
2023/10/17 05:07:52;;;;;;;30.97;14.97;;;;;;;;;;5059206;28;20407;-59
2023/10/17 06:18:59;;;;;;;51.53;19.97;;;;;;;;;;5068375;28;20757;-60
2023/10/17 06:21:38;;;;;;;36.93;18.40;;;;;;;;;;5067376;28;20309;-59
2023/10/17 06:26:46;;;;;;;54.60;20.33;;;;;;;;;;5067590;28;20279;-59
2023/10/17 06:34:31;;;;;;;29.97;15.40;;;;;;;;;;5046011;28;20091;-59
2023/10/17 06:37:01;;;;;;;39.27;17.07;;;;;;;;;;5060280;28;20060;-59
2023/10/17 06:39:36;;;;;;;33.73;16.67;;;;;;;;;;5063734;28;20294;-59
2023/10/17 06:42:14;;;;;;;35.17;17.10;;;;;;;;;;5050778;28;20037;-59
2023/10/17 06:44:51;;;;;;;42.83;18.53;;;;;;;;;;5067883;28;20067;-60
2023/10/17 06:47:18;;;;;;;61.77;20.07;;;;;;;;;;5068101;28;20286;-60
2023/10/17 06:54:52;;;;;;;59.77;21.90;;;;;;;;;;5056827;28;20052;-59
2023/10/17 06:57:24;;;;;;;51.00;19.53;;;;;;;;;;5067589;28;20291;-60
2023/10/17 06:59:50;;;;;;;50.77;19.27;;;;;;;;;;5069272;28;20466;-60
2023/10/17 07:02:18;;;;;;;45.67;19.73;;;;;;;;;;5065887;28;20041;-61
2023/10/17 07:04:49;;;;;;;40.23;18.30;;;;;;;;;;5069286;28;20286;-60
2023/10/17 07:07:16;;;;;;;38.67;18.33;;;;;;;;;;5068329;28;20048;-61
2023/10/17 07:09:42;;;;;;;38.70;17.27;;;;;;;;;;5058691;28;20106;-60
2023/10/17 07:12:17;;;;;;;35.83;18.17;;;;;;;;;;5051311;28;20128;-61
2023/10/17 07:14:48;;;;;;;48.43;19.10;;;;;;;;;;5071031;28;20041;-61
2023/10/17 07:17:27;;;;;;;52.33;23.07;;;;;;;;;;5070567;28;20076;-60
2023/10/17 07:20:01;;;;;;;42.20;20.13;;;;;;;;;;5070004;28;20048;-61
2023/10/17 07:22:35;;;;;;;42.97;19.38;;;;;;;;;;5070304;28;20123;-61
2023/10/17 07:25:02;;;;;;;48.73;21.53;;;;;;;;;;5069223;28;20080;-61
2023/10/17 07:27:33;;;;;;;55.80;24.17;;;;;;;;;;5069132;28;20064;-62
2023/10/17 07:30:25;;;;;;;55.17;26.10;;;;;;;;;;5068513;28;20048;-61
2023/10/17 07:32:54;;;;;;;63.73;27.50;;;;;;;;;;5069599;28;20055;-63
2023/10/17 07:35:23;;;;;;;55.67;25.37;;;;;;;;;;5069140;28;20047;-60
2023/10/17 07:37:54;;;;;;;53.80;26.17;;;;;;;;;;5070210;28;20059;-60
2023/10/17 07:40:31;;;;;;;54.07;27.43;;;;;;;;;;5054686;28;20049;-60
2023/10/17 07:43:00;;;;;;;68.40;30.47;;;;;;;;;;5067096;28;20131;-60
2023/10/17 07:45:26;;;;;;;48.93;25.23;;;;;;;;;;5069674;28;20499;-60
2023/10/17 07:47:53;;;;;;;53.80;26.53;;;;;;;;;;5068747;28;20052;-60
2023/10/17 07:50:20;;;;;;;43.50;25.50;;;;;;;;;;5069998;28;20055;-60
2023/10/17 07:52:50;;;;;;;47.90;24.83;;;;;;;;;;5069720;28;20048;-60
2023/10/17 07:57:51;;;;;;;71.30;33.33;;;;;;;;;;5069145;28;20795;-61
2023/10/17 08:00:27;;;;;;;36.90;21.60;;;;;;;;;;5058836;28;20536;-60
2023/10/17 08:03:00;;;;;;;27.63;16.27;;;;;;;;;;5056559;28;20530;-61
2023/10/17 08:05:27;;;;;;;;;;;;;;;;;;5068771;28;20075;-60
2023/10/17 08:08:04;;;;;;;27.17;17.07;;;;;;;;;;5069238;28;19920;-61
2023/10/17 08:10:33;;;;;;;31.07;15.77;;;;;;;;;;5066515;28;20147;-61
2023/10/17 08:13:00;;;;;;;31.53;14.50;;;;;;;;;;5069049;28;20044;-61
2023/10/17 08:15:44;;;;;;;20.03;13.27;;;;;;;;;;5069390;28;20104;-61
2023/10/17 08:18:17;;;;;;;18.47;10.47;;;;;;;;;;5067811;28;20941;-61
2023/10/17 08:23:34;;;;;;;15.23;10.57;;;;;;;;;;5063493;28;20037;-61
2023/10/17 08:26:00;;;;;;;15.90;10.00;;;;;;;;;;5068885;28;20048;-61
2023/10/17 08:28:46;;;;;;;19.93;11.13;;;;;;;;;;5067862;28;20043;-61
2023/10/17 08:31:22;;;;;;;17.37;11.13;;;;;;;;;;5068361;28;20049;-61
2023/10/17 08:36:41;;;;;;;18.97;10.23;;;;;;;;;;5070140;28;20094;-61
2023/10/17 08:42:05;;;;;;;16.67;9.23;;;;;;;;;;5049143;28;20079;-61
2023/10/17 08:44:38;;;;;;;12.23;9.23;;;;;;;;;;5060775;28;20134;-61
2023/10/17 08:47:04;;;;;;;11.15;7.07;;;;;;;;;;5069038;28;20048;-61
2023/10/17 08:49:31;;;;;;;16.03;9.97;;;;;;;;;;5052793;28;20533;-61
2023/10/17 08:52:01;;;;;;;11.40;7.60;;;;;;;;;;5050132;28;20495;-61
2023/10/17 08:54:30;;;;;;;13.77;7.37;;;;;;;;;;5060117;28;20439;-61
2023/10/17 08:57:03;;;;;;;15.43;8.70;;;;;;;;;;5069255;28;20072;-61
2023/10/17 09:02:15;;;;;;;21.00;10.40;;;;;;;;;;5057824;28;20149;-61
2023/10/17 09:04:44;;;;;;;19.40;10.27;;;;;;;;;;5062120;28;20040;-62
2023/10/17 09:07:22;;;;;;;13.73;8.63;;;;;;;;;;5068418;28;20860;-61
2023/10/17 09:09:54;;;;;;;13.23;7.27;;;;;;;;;;5067547;28;20120;-61
2023/10/17 09:12:24;;;;;;;11.70;6.40;;;;;;;;;;5065253;28;20044;-62
2023/10/17 09:14:52;;;;;;;12.20;6.17;;;;;;;;;;5054319;28;20055;-61
2023/10/17 09:19:51;;;;;;;5.23;3.33;;;;;;;;;;5062233;28;20098;-61
2023/10/17 09:22:20;;;;;;;10.83;4.10;;;;;;;;;;5065862;28;20127;-61
2023/10/17 09:24:48;;;;;;;6.63;2.90;;;;;;;;;;5052938;28;20051;-60
2023/10/17 09:27:14;;;;;;;6.37;2.10;;;;;;;;;;5068728;28;20131;-61
2023/10/17 09:29:47;;;;;;;7.77;2.37;;;;;;;;;;5066364;28;20585;-61
2023/10/17 09:32:13;;;;;;;5.32;2.42;;;;;;;;;;5068044;28;20056;-61
2023/10/17 09:34:41;;;;;;;4.43;1.73;;;;;;;;;;5063026;28;20453;-61
2023/10/17 09:37:12;;;;;;;3.50;1.47;;;;;;;;;;5072276;28;20581;-61
2023/10/17 09:39:47;;;;;;;10.67;2.13;;;;;;;;;;5064071;28;20048;-61
2023/10/17 09:42:14;;;;;;;6.40;1.73;;;;;;;;;;5068088;28;20499;-62
2023/10/17 09:44:40;;;;;;;3.97;1.43;;;;;;;;;;5066563;28;20051;-61
2023/10/17 09:47:07;;;;;;;3.60;1.23;;;;;;;;;;5067647;28;20052;-62
2023/10/17 09:49:53;;;;;;;5.60;1.80;;;;;;;;;;5068551;28;20135;-61
2023/10/17 09:52:20;;;;;;;4.87;1.00;;;;;;;;;;5057924;28;20565;-60
2023/10/17 09:54:51;;;;;;;4.70;1.23;;;;;;;;;;5061729;28;20036;-61
2023/10/17 09:57:18;;;;;;;4.27;1.10;;;;;;;;;;5067872;28;20540;-61
2023/10/17 09:59:59;;;;;;;9.83;1.83;;;;;;;;;;5067684;28;20120;-61
2023/10/17 10:02:25;;;;;;;4.43;1.10;;;;;;;;;;5067848;28;20494;-61
2023/10/17 10:04:51;;;;;;;6.03;1.03;;;;;;;;;;5067066;28;20110;-61
2023/10/17 10:07:21;;;;;;;2.23;0.80;;;;;;;;;;5068069;28;20438;-61
2023/10/17 10:09:47;;;;;;;3.57;0.90;;;;;;;;;;5067993;28;20504;-61
2023/10/17 10:12:14;;;;;;;2.73;1.03;;;;;;;;;;5066306;28;20045;-60
2023/10/17 10:14:42;;;;;;;3.53;0.90;;;;;;;;;;5066475;28;20054;-61
2023/10/17 10:17:09;;;;;;;8.33;1.50;;;;;;;;;;5066462;28;20076;-60
2023/10/17 10:19:41;;;;;;;4.97;1.00;;;;;;;;;;5067219;28;20453;-60
2023/10/17 10:22:12;;;;;;;4.10;0.97;;;;;;;;;;5066769;28;20052;-60
2023/10/17 10:24:39;;;;;;;6.30;1.07;;;;;;;;;;5067754;28;20049;-61
2023/10/17 10:27:15;;;;;;;3.63;0.60;;;;;;;;;;5066568;28;20041;-61
2023/10/17 10:29:42;;;;;;;3.63;0.67;;;;;;;;;;5051717;28;20049;-60
2023/10/17 10:32:26;;;;;;;1.83;0.50;;;;;;;;;;5047906;28;20056;-61
2023/10/17 10:34:53;;;;;;;6.47;3.20;;;;;;;;;;5050388;28;20049;-61
2023/10/17 10:37:20;;;;;;;5.73;1.10;;;;;;;;;;5051807;28;20048;-61
2023/10/17 10:40:12;;;;;;;4.27;0.90;;;;;;;;;;5056848;28;20048;-60
2023/10/17 10:42:48;;;;;;;4.03;0.97;;;;;;;;;;5067663;28;20056;-60
2023/10/17 10:45:36;;;;;;;5.10;1.33;;;;;;;;;;5069963;28;20075;-61
2023/10/17 10:48:14;;;;;;;2.00;0.70;;;;;;;;;;5070796;28;20040;-60
2023/10/17 10:50:41;;;;;;;1.97;0.83;;;;;;;;;;5071705;28;20786;-60
2023/10/17 10:53:28;;;;;;;4.03;0.90;;;;;;;;;;5071464;28;20182;-61
2023/10/17 10:55:59;;;;;;;5.43;0.93;;;;;;;;;;5071788;28;20496;-61
2023/10/17 10:58:26;;;;;;;4.53;0.90;;;;;;;;;;5070903;28;20044;-60
2023/10/17 11:00:54;;;;;;;2.57;0.90;;;;;;;;;;5071581;28;20075;-61
2023/10/17 11:03:21;;;;;;;3.97;1.20;;;;;;;;;;5061549;28;20041;-60
2023/10/17 11:05:54;;;;;;;3.57;1.00;;;;;;;;;;5062022;28;20056;-61
2023/10/17 11:08:20;;;;;;;4.97;1.27;;;;;;;;;;5071380;28;20056;-61
2023/10/17 11:10:46;;;;;;;5.47;0.93;;;;;;;;;;5071480;28;20052;-60
2023/10/17 11:13:13;;;;;;;2.60;0.60;;;;;;;;;;5070937;28;20090;-60
2023/10/17 11:15:45;;;;;;;6.87;0.80;;;;;;;;;;5071532;28;20055;-60
2023/10/17 11:18:12;;;;;;;4.82;0.68;;;;;;;;;;5071461;28;20117;-61
2023/10/17 11:20:41;;;;;;;4.13;0.80;;;;;;;;;;5072301;28;20048;-60
2023/10/17 11:23:09;;;;;;;3.57;0.87;;;;;;;;;;5071587;28;20461;-60
2023/10/17 11:25:35;;;;;;;3.73;0.70;;;;;;;;;;5072197;28;20106;-60
2023/10/17 11:28:06;;;;;;;2.87;0.83;;;;;;;;;;5071680;28;20045;-61
2023/10/17 11:30:34;;;;;;;4.30;0.70;;;;;;;;;;5066909;28;20124;-60
2023/10/17 11:33:04;;;;;;;4.17;0.70;;;;;;;;;;5069675;28;20063;-60
2023/10/17 11:35:30;;;;;;;9.80;1.50;;;;;;;;;;5072190;28;20036;-60
2023/10/17 11:37:59;;;;;;;3.17;0.70;;;;;;;;;;5069466;28;20542;-60
2023/10/17 11:40:30;;;;;;;3.50;1.03;;;;;;;;;;5072031;28;20116;-60
2023/10/17 11:42:57;;;;;;;3.80;0.57;;;;;;;;;;5071656;28;20208;-61
2023/10/17 11:45:25;;;;;;;4.00;0.83;;;;;;;;;;5070605;28;20079;-61
2023/10/17 11:47:55;;;;;;;4.20;0.70;;;;;;;;;;5071596;28;20044;-61
2023/10/17 11:50:38;;;;;;;5.43;1.00;;;;;;;;;;5071049;28;20053;-61
2023/10/17 11:53:12;;;;;;;2.10;0.68;;;;;;;;;;5071694;28;20088;-61
2023/10/17 11:55:43;;;;;;;2.67;0.60;;;;;;;;;;5071532;28;20124;-61
2023/10/17 11:58:09;;;;;;;2.03;0.80;;;;;;;;;;5071073;28;20041;-61
2023/10/17 12:00:35;;;;;;;5.83;0.80;;;;;;;;;;5071319;28;20072;-61
2023/10/17 12:03:01;;;;;;;4.37;1.00;;;;;;;;;;5071418;28;20048;-60
2023/10/17 12:05:35;;;;;;;3.13;0.70;;;;;;;;;;5071650;28;20101;-60
2023/10/17 12:08:01;;;;;;;6.33;0.90;;;;;;;;;;5071050;28;20044;-60
2023/10/17 12:10:36;;;;;;;2.03;0.70;;;;;;;;;;5071260;28;20106;-60
2023/10/17 12:13:06;;;;;;;5.10;0.97;;;;;;;;;;5071091;28;20491;-60
2023/10/17 12:15:32;;;;;;;2.93;0.70;;;;;;;;;;5071293;28;20437;-60
2023/10/17 12:17:59;;;;;;;4.80;0.83;;;;;;;;;;5070859;28;20037;-60
2023/10/17 12:20:28;;;;;;;2.60;0.80;;;;;;;;;;5070875;28;20091;-60
2023/10/17 12:22:57;;;;;;;3.43;0.67;;;;;;;;;;5071142;28;20109;-60
2023/10/17 12:25:24;;;;;;;3.70;0.80;;;;;;;;;;5071146;28;20078;-60
2023/10/17 12:27:52;;;;;;;4.10;0.90;;;;;;;;;;5066913;28;20052;-60
2023/10/17 12:30:27;;;;;;;3.90;0.70;;;;;;;;;;5050481;28;20041;-60
2023/10/17 12:32:55;;;;;;;7.47;1.30;;;;;;;;;;5051102;28;20543;-60
2023/10/17 12:35:21;;;;;;;4.57;0.93;;;;;;;;;;5050575;28;20044;-61
2023/10/17 12:37:50;;;;;;;3.50;0.87;;;;;;;;;;5050594;28;20049;-60
2023/10/17 12:40:23;;;;;;;4.53;1.10;;;;;;;;;;5050048;28;20527;-61
2023/10/17 12:42:49;;;;;;;2.83;1.00;;;;;;;;;;5051643;28;20045;-60
2023/10/17 12:45:15;;;;;;;5.57;1.07;;;;;;;;;;5050999;28;20045;-60
2023/10/17 12:47:45;;;;;;;4.27;0.80;;;;;;;;;;5050632;28;20045;-60
2023/10/17 12:50:12;;;;;;;11.80;0.83;;;;;;;;;;5050224;28;20174;-60
2023/10/17 12:52:38;;;;;;;3.57;1.00;;;;;;;;;;5053112;28;20057;-60
2023/10/17 12:55:05;;;;;;;3.03;0.67;;;;;;;;;;5068293;28;20036;-61
2023/10/17 12:57:31;;;;;;;4.20;0.90;;;;;;;;;;5070019;28;20048;-61
2023/10/17 12:59:59;;;;;;;6.27;1.17;;;;;;;;;;5069918;28;20084;-60
2023/10/17 13:02:29;;;;;;;3.17;0.70;;;;;;;;;;5070465;28;20121;-59
2023/10/17 13:04:55;;;;;;;6.17;0.83;;;;;;;;;;5070141;28;20080;-60
2023/10/17 13:07:23;;;;;;;5.27;0.90;;;;;;;;;;5068697;28;20045;-60
2023/10/17 13:09:49;;;;;;;5.17;0.90;;;;;;;;;;5067963;28;20131;-60
2023/10/17 13:12:15;;;;;;;3.73;1.10;;;;;;;;;;5051278;28;20469;-60
2023/10/17 13:14:41;;;;;;;4.97;1.37;;;;;;;;;;5064911;28;20051;-60
2023/10/17 13:17:11;;;;;;;2.63;0.90;;;;;;;;;;5069313;28;20105;-60
2023/10/17 13:19:43;;;;;;;1.63;0.80;;;;;;;;;;5067802;28;20514;-60
2023/10/17 13:22:14;;;;;;;2.87;1.00;;;;;;;;;;5065972;28;20044;-60
2023/10/17 13:24:41;;;;;;;3.10;1.10;;;;;;;;;;5060122;28;20048;-60
2023/10/17 13:27:07;;;;;;;2.97;0.90;;;;;;;;;;5069022;28;20044;-60
2023/10/17 13:29:33;;;;;;;3.07;0.90;;;;;;;;;;5065900;28;20474;-60
2023/10/17 13:32:00;;;;;;;2.63;0.80;;;;;;;;;;5068763;28;20045;-60
2023/10/17 13:34:28;;;;;;;3.83;1.07;;;;;;;;;;5069213;28;20044;-61
2023/10/17 13:36:54;;;;;;;5.50;1.47;;;;;;;;;;5068822;28;20041;-60
2023/10/17 13:39:22;;;;;;;3.03;1.00;;;;;;;;;;5067851;28;20542;-62
2023/10/17 13:41:48;;;;;;;7.07;0.90;;;;;;;;;;5067360;28;20411;-61
2023/10/17 13:44:15;;;;;;;3.83;0.87;;;;;;;;;;5068127;28;20043;-60
2023/10/17 13:46:41;;;;;;;2.53;0.83;;;;;;;;;;5067608;28;20094;-60
2023/10/17 13:49:11;;;;;;;4.60;0.83;;;;;;;;;;5067227;28;20040;-61
2023/10/17 13:51:40;;;;;;;2.63;0.93;;;;;;;;;;5067554;28;20087;-60
2023/10/17 13:54:13;;;;;;;4.50;1.10;;;;;;;;;;5068969;28;20129;-60
2023/10/17 13:56:40;;;;;;;3.87;1.20;;;;;;;;;;5066781;28;20048;-61
2023/10/17 13:59:09;;;;;;;4.47;1.03;;;;;;;;;;5067609;28;20049;-61
2023/10/17 14:01:41;;;;;;;4.73;0.90;;;;;;;;;;5066366;28;20048;-61
2023/10/17 14:04:09;;;;;;;6.90;1.63;;;;;;;;;;5068645;28;20049;-60
2023/10/17 14:06:54;;;;;;;4.13;0.87;;;;;;;;;;5065175;28;20514;-61
2023/10/17 14:09:23;;;;;;;1.93;0.83;;;;;;;;;;5060906;28;20482;-61
2023/10/17 14:11:52;;;;;;;2.83;0.90;;;;;;;;;;5070116;28;20123;-61
2023/10/17 14:14:18;;;;;;;3.27;1.00;;;;;;;;;;5073698;28;20072;-61
2023/10/17 14:16:50;;;;;;;3.17;0.97;;;;;;;;;;5075184;28;20162;-61
2023/10/17 14:19:18;;;;;;;4.07;1.10;;;;;;;;;;5072684;28;20259;-61
2023/10/17 14:22:04;;;;;;;3.70;0.90;;;;;;;;;;5075736;28;20426;-61
2023/10/17 14:24:49;;;;;;;5.20;1.00;;;;;;;;;;5073632;28;20055;-60
2023/10/17 14:27:16;;;;;;;4.77;1.00;;;;;;;;;;5074982;28;20048;-61
2023/10/17 14:29:45;;;;;;;5.37;1.50;;;;;;;;;;5070785;28;20036;-61
2023/10/17 14:32:11;;;;;;;3.97;1.10;;;;;;;;;;5074069;28;20055;-61
2023/10/17 14:34:37;;;;;;;3.77;0.90;;;;;;;;;;5075596;28;20044;-61
2023/10/17 14:37:07;;;;;;;3.93;1.00;;;;;;;;;;5074119;28;20056;-60
2023/10/17 14:39:33;;;;;;;3.77;1.10;;;;;;;;;;5074387;28;20449;-61
2023/10/17 14:41:59;;;;;;;3.87;1.20;;;;;;;;;;5069300;28;20052;-61
2023/10/17 14:44:29;;;;;;;3.63;1.30;;;;;;;;;;5062028;28;20072;-61
2023/10/17 14:46:58;;;;;;;4.07;1.40;;;;;;;;;;5055291;28;20044;-60
2023/10/17 14:49:26;;;;;;;5.67;1.30;;;;;;;;;;5068343;28;20049;-61
2023/10/17 14:51:53;;;;;;;2.67;0.97;;;;;;;;;;5075615;28;20061;-61
2023/10/17 14:54:19;;;;;;;5.00;1.00;;;;;;;;;;5072838;28;20052;-61
2023/10/17 14:56:45;;;;;;;3.60;1.73;;;;;;;;;;5071810;28;20048;-61
2023/10/17 14:59:11;;;;;;;4.37;1.50;;;;;;;;;;5070811;28;20051;-61
2023/10/17 15:01:37;;;;;;;4.83;1.50;;;;;;;;;;5074383;28;20490;-61
2023/10/17 15:04:04;;;;;;;7.20;1.60;;;;;;;;;;5074662;28;20086;-61
2023/10/17 15:06:31;;;;;;;3.23;1.13;;;;;;;;;;5066520;28;20644;-61
2023/10/17 15:08:57;;;;;;;4.20;1.10;;;;;;;;;;5072309;28;20131;-61
2023/10/17 15:11:23;;;;;;;3.70;1.10;;;;;;;;;;5075092;28;20055;-61
2023/10/17 15:13:49;;;;;;;4.57;1.20;;;;;;;;;;5073534;28;20079;-61
2023/10/17 15:16:16;;;;;;;3.47;1.43;;;;;;;;;;5074116;28;20558;-61
2023/10/17 15:18:43;;;;;;;5.93;1.60;;;;;;;;;;5074807;28;20110;-60
2023/10/17 15:21:09;;;;;;;5.43;1.90;;;;;;;;;;5071829;28;20048;-61
2023/10/17 15:23:41;;;;;;;7.53;2.27;;;;;;;;;;5070265;28;20546;-60
2023/10/17 15:26:10;;;;;;;3.78;1.27;;;;;;;;;;5070314;28;20143;-61
2023/10/17 15:28:36;;;;;;;4.10;1.37;;;;;;;;;;5065262;28;20060;-61
2023/10/17 15:31:11;;;;;;;4.43;1.97;;;;;;;;;;5068553;28;20499;-61
2023/10/17 15:33:38;;;;;;;6.00;1.73;;;;;;;;;;5068996;28;20071;-61
2023/10/17 15:36:05;;;;;;;7.57;2.30;;;;;;;;;;5068770;28;20127;-61
2023/10/17 15:38:32;;;;;;;4.43;1.47;;;;;;;;;;5068088;28;20100;-61
2023/10/17 15:40:59;;;;;;;6.47;1.50;;;;;;;;;;5070708;28;20048;-61
2023/10/17 15:43:25;;;;;;;4.97;1.80;;;;;;;;;;5070230;28;20048;-61
2023/10/17 15:45:54;;;;;;;4.10;2.07;;;;;;;;;;5070008;28;20086;-61
2023/10/17 15:48:20;;;;;;;8.00;4.17;;;;;;;;;;5067511;28;20052;-61
2023/10/17 15:50:46;;;;;;;5.13;2.10;;;;;;;;;;5055316;28;20033;-60
2023/10/17 15:53:12;;;;;;;5.37;1.60;;;;;;;;;;5068313;28;20059;-61
2023/10/17 15:55:39;;;;;;;7.80;2.53;;;;;;;;;;5067173;28;20044;-60
2023/10/17 15:58:06;;;;;;;8.60;2.63;;;;;;;;;;5067495;28;20044;-60
2023/10/17 16:00:32;;;;;;;26.70;10.20;;;;;;;;;;5055092;28;20449;-60
2023/10/17 16:02:58;;;;;;;5.63;2.00;;;;;;;;;;5070639;28;20055;-60
2023/10/17 16:05:27;;;;;;;5.37;2.00;;;;;;;;;;5067741;28;20089;-60
2023/10/17 16:07:53;;;;;;;5.67;2.07;;;;;;;;;;5070192;28;20127;-60
2023/10/17 16:10:19;;;;;;;3.67;1.90;;;;;;;;;;5068337;28;20201;-60
2023/10/17 16:12:48;;;;;;;8.30;3.60;;;;;;;;;;5068396;28;20052;-60
2023/10/17 16:15:14;;;;;;;5.63;2.03;;;;;;;;;;5068605;28;20044;-60
2023/10/17 16:17:40;;;;;;;5.47;2.23;;;;;;;;;;5070025;28;20056;-61
2023/10/17 16:20:17;;;;;;;5.53;1.80;;;;;;;;;;5067993;28;20040;-61
2023/10/17 16:22:44;;;;;;;7.50;3.40;;;;;;;;;;5063099;28;20048;-60
2023/10/17 16:25:13;;;;;;;5.93;2.70;;;;;;;;;;5056437;28;20526;-60
2023/10/17 16:27:39;;;;;;;5.47;2.13;;;;;;;;;;5067994;28;20045;-60
2023/10/17 16:30:10;;;;;;;5.53;2.00;;;;;;;;;;5062849;28;20615;-60
2023/10/17 16:32:36;;;;;;;4.73;1.80;;;;;;;;;;5052030;28;20044;-61
2023/10/17 16:35:04;;;;;;;7.33;2.00;;;;;;;;;;5069566;28;20051;-60
2023/10/17 16:37:32;;;;;;;6.03;1.80;;;;;;;;;;5067994;28;20456;-60
2023/10/17 16:39:58;;;;;;;8.13;2.23;;;;;;;;;;5067897;28;20507;-60
2023/10/17 16:42:24;;;;;;;4.90;2.10;;;;;;;;;;5068639;28;20105;-60
2023/10/17 16:44:50;;;;;;;5.83;2.40;;;;;;;;;;5069697;28;20110;-60
2023/10/17 16:47:16;;;;;;;3.37;1.80;;;;;;;;;;5067263;28;20040;-61
2023/10/17 16:49:44;;;;;;;9.47;2.50;;;;;;;;;;5067400;28;20486;-61
2023/10/17 16:52:10;;;;;;;7.37;3.07;;;;;;;;;;5068720;28;20479;-63
2023/10/17 16:54:40;;;;;;;7.30;2.70;;;;;;;;;;5064497;28;20068;-61
2023/10/17 16:57:06;;;;;;;6.90;3.40;;;;;;;;;;5049189;28;20103;-61
2023/10/17 16:59:32;;;;;;;6.80;4.00;;;;;;;;;;5049233;28;20449;-61